sensor_id;sensor_type;location;lat;lon;timestamp;pressure;altitude;pressure_sealevel;temperature;humidity
8280;BME280;8335;42.646;23.380;2024-01-30T00:02:01;141418.38;;;-0.87;83.16
8280;BME280;8335;42.646;23.380;2024-01-30T00:04:28;141409.81;;;-0.90;83.42
8280;BME280;8335;42.646;23.380;2024-01-30T00:06:56;141402.38;;;-0.93;83.46
8280;BME280;8335;42.646;23.380;2024-01-30T00:09:22;141408.56;;;-0.91;83.62
8280;BME280;8335;42.646;23.380;2024-01-30T00:11:49;141406.13;;;-0.92;83.73
8280;BME280;8335;42.646;23.380;2024-01-30T00:14:16;141375.34;;;-1.04;83.28
8280;BME280;8335;42.646;23.380;2024-01-30T00:16:43;141402.38;;;-0.93;83.43
8280;BME280;8335;42.646;23.380;2024-01-30T00:19:09;141402.38;;;-0.93;83.21
8280;BME280;8335;42.646;23.380;2024-01-30T00:21:36;141417.16;;;-0.87;82.54
8280;BME280;8335;42.646;23.380;2024-01-30T00:24:05;141420.91;;;-0.86;82.70
8280;BME280;8335;42.646;23.380;2024-01-30T00:26:32;141418.38;;;-0.87;82.14
8280;BME280;8335;42.646;23.380;2024-01-30T00:28:59;141422.13;;;-0.85;81.93
8280;BME280;8335;42.646;23.380;2024-01-30T00:31:25;141414.72;;;-0.88;81.39
8280;BME280;8335;42.646;23.380;2024-01-30T00:33:52;141418.38;;;-0.87;81.62
8280;BME280;8335;42.646;23.380;2024-01-30T00:36:19;141408.56;;;-0.91;81.70
8280;BME280;8335;42.646;23.380;2024-01-30T00:38:46;141406.13;;;-0.92;81.77
8280;BME280;8335;42.646;23.380;2024-01-30T00:41:14;141398.72;;;-0.95;81.55
8280;BME280;8335;42.646;23.380;2024-01-30T00:43:41;141398.72;;;-0.95;82.00
8280;BME280;8335;42.646;23.380;2024-01-30T00:46:07;141386.44;;;-1.00;82.01
8280;BME280;8335;42.646;23.380;2024-01-30T00:48:34;141377.78;;;-1.03;81.64
8280;BME280;8335;42.646;23.380;2024-01-30T00:51:01;141364.25;;;-1.09;81.58
8280;BME280;8335;42.646;23.380;2024-01-30T00:53:27;141369.22;;;-1.07;81.48
8280;BME280;8335;42.646;23.380;2024-01-30T00:55:54;141375.34;;;-1.04;81.63
8280;BME280;8335;42.646;23.380;2024-01-30T00:58:22;141371.66;;;-1.06;81.77
8280;BME280;8335;42.646;23.380;2024-01-30T01:00:49;141370.44;;;-1.06;81.69
8280;BME280;8335;42.646;23.380;2024-01-30T01:03:15;141358.13;;;-1.12;82.05
8280;BME280;8335;42.646;23.380;2024-01-30T01:05:42;141359.34;;;-1.11;82.74
8280;BME280;8335;42.646;23.380;2024-01-30T01:08:09;141351.97;;;-1.14;82.89
8280;BME280;8335;42.646;23.380;2024-01-30T01:10:35;141332.25;;;-1.22;83.42
8280;BME280;8335;42.646;23.380;2024-01-30T01:13:02;141326.13;;;-1.25;83.26
8280;BME280;8335;42.646;23.380;2024-01-30T01:15:30;141317.53;;;-1.28;83.49
8280;BME280;8335;42.646;23.380;2024-01-30T01:17:57;141318.75;;;-1.28;83.77
8280;BME280;8335;42.646;23.380;2024-01-30T01:20:24;141292.88;;;-1.39;84.30
8280;BME280;8335;42.646;23.380;2024-01-30T01:22:50;141301.53;;;-1.35;84.28
8280;BME280;8335;42.646;23.380;2024-01-30T01:25:18;141303.97;;;-1.34;84.31
8280;BME280;8335;42.646;23.380;2024-01-30T01:27:45;141292.88;;;-1.39;84.98
8280;BME280;8335;42.646;23.380;2024-01-30T01:30:17;141263.34;;;-1.51;84.86
8280;BME280;8335;42.646;23.380;2024-01-30T01:32:48;141292.88;;;-1.39;84.77
8280;BME280;8335;42.646;23.380;2024-01-30T01:35:20;141295.34;;;-1.38;84.46
8280;BME280;8335;42.646;23.380;2024-01-30T01:37:48;141299.03;;;-1.36;84.30
8280;BME280;8335;42.646;23.380;2024-01-30T01:40:20;141292.88;;;-1.39;84.47
8280;BME280;8335;42.646;23.380;2024-01-30T01:42:47;141297.81;;;-1.36;84.54
8280;BME280;8335;42.646;23.380;2024-01-30T01:45:14;141278.13;;;-1.45;84.42
8280;BME280;8335;42.646;23.380;2024-01-30T01:47:41;141291.66;;;-1.39;85.02
8280;BME280;8335;42.646;23.380;2024-01-30T01:50:09;141280.56;;;-1.44;84.88
8280;BME280;8335;42.646;23.380;2024-01-30T01:52:36;141265.84;;;-1.50;85.08
8280;BME280;8335;42.646;23.380;2024-01-30T01:55:04;141289.22;;;-1.40;85.33
8280;BME280;8335;42.646;23.380;2024-01-30T01:57:33;141188.34;;;-1.82;85.35
8280;BME280;8335;42.646;23.380;2024-01-30T02:00:00;141291.66;;;-1.39;84.69
8280;BME280;8335;42.646;23.380;2024-01-30T02:02:30;141295.34;;;-1.38;84.73
8280;BME280;8335;42.646;23.380;2024-01-30T02:04:57;141301.53;;;-1.35;84.74
8280;BME280;8335;42.646;23.380;2024-01-30T02:07:26;141307.66;;;-1.32;84.47
8280;BME280;8335;42.646;23.380;2024-01-30T02:09:53;141312.56;;;-1.30;84.33
8280;BME280;8335;42.646;23.380;2024-01-30T02:12:20;141321.22;;;-1.27;84.04
8280;BME280;8335;42.646;23.380;2024-01-30T02:14:47;141338.44;;;-1.20;83.26
8280;BME280;8335;42.646;23.380;2024-01-30T02:17:15;141342.13;;;-1.18;82.63
8280;BME280;8335;42.646;23.380;2024-01-30T02:19:42;141364.25;;;-1.09;81.53
8280;BME280;8335;42.646;23.380;2024-01-30T02:22:10;141375.34;;;-1.04;81.25
8280;BME280;8335;42.646;23.380;2024-01-30T02:24:37;141385.16;;;-1.00;80.82
8280;BME280;8335;42.646;23.380;2024-01-30T02:27:04;141398.72;;;-0.95;80.39
8280;BME280;8335;42.646;23.380;2024-01-30T02:29:31;141409.81;;;-0.90;79.99
8280;BME280;8335;42.646;23.380;2024-01-30T02:31:57;141417.16;;;-0.87;79.98
8280;BME280;8335;42.646;23.380;2024-01-30T02:34:24;141430.72;;;-0.81;79.92
8280;BME280;8335;42.646;23.380;2024-01-30T02:36:51;141445.50;;;-0.75;79.20
8280;BME280;8335;42.646;23.380;2024-01-30T02:39:19;141446.72;;;-0.75;79.48
8280;BME280;8335;42.646;23.380;2024-01-30T02:41:45;141460.28;;;-0.69;79.22
8280;BME280;8335;42.646;23.380;2024-01-30T02:44:12;141465.19;;;-0.67;78.99
8280;BME280;8335;42.646;23.380;2024-01-30T02:46:39;141477.50;;;-0.62;78.59
8280;BME280;8335;42.646;23.380;2024-01-30T02:49:05;141488.56;;;-0.58;78.38
8280;BME280;8335;42.646;23.380;2024-01-30T02:51:32;141499.66;;;-0.53;78.03
8280;BME280;8335;42.646;23.380;2024-01-30T02:53:59;141509.53;;;-0.49;78.05
8280;BME280;8335;42.646;23.380;2024-01-30T02:56:27;141514.44;;;-0.47;77.97
8280;BME280;8335;42.646;23.380;2024-01-30T02:58:53;141524.31;;;-0.43;77.77
8280;BME280;8335;42.646;23.380;2024-01-30T03:01:20;141531.69;;;-0.40;77.27
8280;BME280;8335;42.646;23.380;2024-01-30T03:03:47;141536.59;;;-0.38;77.02
8280;BME280;8335;42.646;23.380;2024-01-30T03:06:13;141542.78;;;-0.35;76.18
8280;BME280;8335;42.646;23.380;2024-01-30T03:08:42;141556.28;;;-0.30;75.49
8280;BME280;8335;42.646;23.380;2024-01-30T03:11:10;141557.50;;;-0.29;74.20
8280;BME280;8335;42.646;23.380;2024-01-30T03:13:38;141558.78;;;-0.29;73.33
8280;BME280;8335;42.646;23.380;2024-01-30T03:16:05;141568.63;;;-0.24;72.96
8280;BME280;8335;42.646;23.380;2024-01-30T03:18:32;141572.31;;;-0.23;73.33
8280;BME280;8335;42.646;23.380;2024-01-30T03:20:59;141572.31;;;-0.23;73.02
8280;BME280;8335;42.646;23.380;2024-01-30T03:23:26;141547.69;;;-0.33;72.42
8280;BME280;8335;42.646;23.380;2024-01-30T03:25:53;141550.16;;;-0.32;72.47
8280;BME280;8335;42.646;23.380;2024-01-30T03:28:19;141544.00;;;-0.35;72.25
8280;BME280;8335;42.646;23.380;2024-01-30T03:30:47;141547.69;;;-0.33;72.68
8280;BME280;8335;42.646;23.380;2024-01-30T03:33:14;141519.34;;;-0.45;72.40
8280;BME280;8335;42.646;23.380;2024-01-30T03:35:41;141557.50;;;-0.29;72.14
8280;BME280;8335;42.646;23.380;2024-01-30T03:38:08;141555.06;;;-0.30;69.84
8280;BME280;8335;42.646;23.380;2024-01-30T03:40:34;141537.81;;;-0.37;69.56
8280;BME280;8335;42.646;23.380;2024-01-30T03:43:01;141504.56;;;-0.51;69.72
8280;BME280;8335;42.646;23.380;2024-01-30T03:45:28;141493.53;;;-0.56;70.45
8280;BME280;8335;42.646;23.380;2024-01-30T03:47:56;141477.50;;;-0.62;70.77
8280;BME280;8335;42.646;23.380;2024-01-30T03:50:22;141476.28;;;-0.63;70.95
8280;BME280;8335;42.646;23.380;2024-01-30T03:52:49;141486.09;;;-0.59;71.08
8280;BME280;8335;42.646;23.380;2024-01-30T03:55:16;141491.06;;;-0.57;70.90
8280;BME280;8335;42.646;23.380;2024-01-30T03:57:42;141499.66;;;-0.53;70.57
8280;BME280;8335;42.646;23.380;2024-01-30T04:00:10;141504.56;;;-0.51;70.48
8280;BME280;8335;42.646;23.380;2024-01-30T04:02:37;141511.97;;;-0.48;70.48
8280;BME280;8335;42.646;23.380;2024-01-30T04:05:06;141524.31;;;-0.43;70.31
8280;BME280;8335;42.646;23.380;2024-01-30T04:07:32;141532.91;;;-0.39;70.52
8280;BME280;8335;42.646;23.380;2024-01-30T04:09:59;141542.78;;;-0.35;70.60
8280;BME280;8335;42.646;23.380;2024-01-30T04:12:26;141541.53;;;-0.36;70.74
8280;BME280;8335;42.646;23.380;2024-01-30T04:14:52;141548.91;;;-0.33;70.55
8280;BME280;8335;42.646;23.380;2024-01-30T04:17:19;141553.84;;;-0.31;69.93
8280;BME280;8335;42.646;23.380;2024-01-30T04:19:46;141568.63;;;-0.24;69.49
8280;BME280;8335;42.646;23.380;2024-01-30T04:22:14;141561.25;;;-0.28;69.55
8280;BME280;8335;42.646;23.380;2024-01-30T04:24:40;141568.63;;;-0.24;69.63
8280;BME280;8335;42.646;23.380;2024-01-30T04:27:07;141568.63;;;-0.24;69.55
8280;BME280;8335;42.646;23.380;2024-01-30T04:29:34;141568.63;;;-0.24;69.67
8280;BME280;8335;42.646;23.380;2024-01-30T04:32:01;141561.25;;;-0.28;69.46
8280;BME280;8335;42.646;23.380;2024-01-30T04:34:27;141556.28;;;-0.30;69.20
8280;BME280;8335;42.646;23.380;2024-01-30T04:36:54;141564.94;;;-0.26;68.73
8280;BME280;8335;42.646;23.380;2024-01-30T04:39:22;141548.91;;;-0.33;68.48
8280;BME280;8335;42.646;23.380;2024-01-30T04:41:49;141550.16;;;-0.32;68.73
8280;BME280;8335;42.646;23.380;2024-01-30T04:44:15;141540.28;;;-0.36;68.79
8280;BME280;8335;42.646;23.380;2024-01-30T04:46:42;141521.81;;;-0.44;69.31
8280;BME280;8335;42.646;23.380;2024-01-30T04:49:09;141525.53;;;-0.42;69.69
8280;BME280;8335;42.646;23.380;2024-01-30T04:51:35;141509.53;;;-0.49;70.27
8280;BME280;8335;42.646;23.380;2024-01-30T04:54:02;141488.56;;;-0.58;71.31
8280;BME280;8335;42.646;23.380;2024-01-30T04:56:30;141452.84;;;-0.72;71.43
8280;BME280;8335;42.646;23.380;2024-01-30T04:58:57;141452.84;;;-0.72;71.46
8280;BME280;8335;42.646;23.380;2024-01-30T05:01:24;141436.84;;;-0.79;71.62
8280;BME280;8335;42.646;23.380;2024-01-30T05:03:51;141424.56;;;-0.84;71.75
8280;BME280;8335;42.646;23.380;2024-01-30T05:06:24;141413.47;;;-0.89;72.21
8280;BME280;8335;42.646;23.380;2024-01-30T05:08:51;141402.38;;;-0.93;72.95
8280;BME280;8335;42.646;23.380;2024-01-30T05:11:17;141381.47;;;-1.02;73.24
8280;BME280;8335;42.646;23.380;2024-01-30T05:13:46;141376.56;;;-1.04;73.56
8280;BME280;8335;42.646;23.380;2024-01-30T05:16:13;141367.94;;;-1.07;74.40
8280;BME280;8335;42.646;23.380;2024-01-30T05:18:40;141361.78;;;-1.10;74.40
8280;BME280;8335;42.646;23.380;2024-01-30T05:21:06;141345.78;;;-1.17;74.92
8280;BME280;8335;42.646;23.380;2024-01-30T05:23:33;141356.88;;;-1.12;75.49
8280;BME280;8335;42.646;23.380;2024-01-30T05:26:00;141334.75;;;-1.21;75.80
8280;BME280;8335;42.646;23.380;2024-01-30T05:28:29;141326.13;;;-1.25;76.26
8280;BME280;8335;42.646;23.380;2024-01-30T05:30:57;141319.97;;;-1.27;76.16
8280;BME280;8335;42.646;23.380;2024-01-30T05:33:25;141312.56;;;-1.30;76.99
8280;BME280;8335;42.646;23.380;2024-01-30T05:35:51;141303.97;;;-1.34;77.00
8280;BME280;8335;42.646;23.380;2024-01-30T05:38:19;141294.13;;;-1.38;77.70
8280;BME280;8335;42.646;23.380;2024-01-30T05:40:46;141290.44;;;-1.40;77.79
8280;BME280;8335;42.646;23.380;2024-01-30T05:43:13;141286.75;;;-1.41;77.84
8280;BME280;8335;42.646;23.380;2024-01-30T05:45:39;141286.75;;;-1.41;77.77
8280;BME280;8335;42.646;23.380;2024-01-30T05:48:07;141286.75;;;-1.41;77.72
8280;BME280;8335;42.646;23.380;2024-01-30T05:50:34;141284.31;;;-1.42;77.63
8280;BME280;8335;42.646;23.380;2024-01-30T05:53:01;141286.75;;;-1.41;77.66
8280;BME280;8335;42.646;23.380;2024-01-30T05:55:27;141299.03;;;-1.36;76.98
8280;BME280;8335;42.646;23.380;2024-01-30T05:57:54;141311.34;;;-1.31;76.82
8280;BME280;8335;42.646;23.380;2024-01-30T06:00:21;141313.81;;;-1.30;76.31
8280;BME280;8335;42.646;23.380;2024-01-30T06:02:48;141327.34;;;-1.24;75.27
8280;BME280;8335;42.646;23.380;2024-01-30T06:05:16;141328.56;;;-1.24;75.07
8280;BME280;8335;42.646;23.380;2024-01-30T06:07:42;141333.47;;;-1.22;75.53
8280;BME280;8335;42.646;23.380;2024-01-30T06:10:09;141340.88;;;-1.19;74.88
8280;BME280;8335;42.646;23.380;2024-01-30T06:12:36;141355.66;;;-1.13;75.52
8280;BME280;8335;42.646;23.380;2024-01-30T06:15:03;141354.44;;;-1.13;74.54
8280;BME280;8335;42.646;23.380;2024-01-30T06:17:30;141360.56;;;-1.11;73.65
8280;BME280;8335;42.646;23.380;2024-01-30T06:19:56;141377.78;;;-1.03;73.59
8280;BME280;8335;42.646;23.380;2024-01-30T06:22:25;141388.88;;;-0.99;73.30
8280;BME280;8335;42.646;23.380;2024-01-30T06:24:51;141399.94;;;-0.94;73.59
8280;BME280;8335;42.646;23.380;2024-01-30T06:27:18;141412.25;;;-0.89;73.75
8280;BME280;8335;42.646;23.380;2024-01-30T06:29:46;141393.78;;;-0.97;73.18
8280;BME280;8335;42.646;23.380;2024-01-30T06:32:12;141435.63;;;-0.79;73.00
8280;BME280;8335;42.646;23.380;2024-01-30T06:34:40;141436.84;;;-0.79;72.68
8280;BME280;8335;42.646;23.380;2024-01-30T06:37:09;141420.91;;;-0.86;72.03
8280;BME280;8335;42.646;23.380;2024-01-30T06:39:37;141473.81;;;-0.64;71.13
8280;BME280;8335;42.646;23.380;2024-01-30T06:42:04;141479.97;;;-0.61;69.77
8280;BME280;8335;42.646;23.380;2024-01-30T06:44:31;141486.09;;;-0.59;69.12
8280;BME280;8335;42.646;23.380;2024-01-30T06:46:57;141508.31;;;-0.49;69.24
8280;BME280;8335;42.646;23.380;2024-01-30T06:49:24;141530.44;;;-0.40;68.49
8280;BME280;8335;42.646;23.380;2024-01-30T06:51:51;141545.22;;;-0.34;68.25
8280;BME280;8335;42.646;23.380;2024-01-30T06:54:17;141555.06;;;-0.30;67.96
8280;BME280;8335;42.646;23.380;2024-01-30T06:56:45;141572.31;;;-0.23;67.36
8280;BME280;8335;42.646;23.380;2024-01-30T06:59:12;141616.66;;;-0.05;67.26
8280;BME280;8335;42.646;23.380;2024-01-30T07:01:39;141727.53;;;0.41;66.29
8280;BME280;8335;42.646;23.380;2024-01-30T07:04:06;141875.47;;;1.02;64.14
8280;BME280;8335;42.646;23.380;2024-01-30T07:06:32;141972.84;;;1.43;62.25
8280;BME280;8335;42.646;23.380;2024-01-30T07:08:59;142157.94;;;2.19;60.51
8280;BME280;8335;42.646;23.380;2024-01-30T07:11:26;142348.06;;;2.97;57.43
8280;BME280;8335;42.646;23.380;2024-01-30T07:13:55;142518.59;;;3.68;54.12
8280;BME280;8335;42.646;23.380;2024-01-30T07:16:22;142809.19;;;4.87;52.12
8280;BME280;8335;42.646;23.380;2024-01-30T07:18:49;143072.84;;;5.96;48.72
8280;BME280;8335;42.646;23.380;2024-01-30T07:21:16;143266.09;;;6.75;44.98
8280;BME280;8335;42.646;23.380;2024-01-30T07:23:42;143357.81;;;7.13;43.78
8280;BME280;8335;42.646;23.380;2024-01-30T07:26:09;143617.00;;;8.19;41.98
8280;BME280;8335;42.646;23.380;2024-01-30T07:28:36;143775.88;;;8.85;40.54
8280;BME280;8335;42.646;23.380;2024-01-30T07:31:05;143928.63;;;9.47;39.42
8280;BME280;8335;42.646;23.380;2024-01-30T07:33:31;144100.06;;;10.17;37.39
8280;BME280;8335;42.646;23.380;2024-01-30T07:35:58;144202.03;;;10.59;36.16
8280;BME280;8335;42.646;23.380;2024-01-30T07:38:25;144236.84;;;10.73;34.83
8280;BME280;8335;42.646;23.380;2024-01-30T07:40:52;144261.69;;;10.84;34.51
8280;BME280;8335;42.646;23.380;2024-01-30T07:43:18;144332.56;;;11.13;34.46
8280;BME280;8335;42.646;23.380;2024-01-30T07:45:46;144434.59;;;11.54;33.26
8280;BME280;8335;42.646;23.380;2024-01-30T07:48:14;144552.84;;;12.03;32.79
8280;BME280;8335;42.646;23.380;2024-01-30T07:50:41;144632.50;;;12.35;32.23
8280;BME280;8335;42.646;23.380;2024-01-30T07:53:08;144644.94;;;12.40;31.48
8280;BME280;8335;42.646;23.380;2024-01-30T07:55:35;144632.50;;;12.35;30.82
8280;BME280;8335;42.646;23.380;2024-01-30T07:58:01;144672.38;;;12.52;31.35
8280;BME280;8335;42.646;23.380;2024-01-30T08:00:30;144682.28;;;12.56;30.91
8280;BME280;8335;42.646;23.380;2024-01-30T08:02:57;144750.78;;;12.84;31.42
8280;BME280;8335;42.646;23.380;2024-01-30T08:05:25;144872.91;;;13.34;30.07
8280;BME280;8335;42.646;23.380;2024-01-30T08:07:52;144815.56;;;13.10;29.92
8280;BME280;8335;42.646;23.380;2024-01-30T08:10:20;144749.53;;;12.83;30.01
8280;BME280;8335;42.646;23.380;2024-01-30T08:12:47;144815.56;;;13.10;29.97
8280;BME280;8335;42.646;23.380;2024-01-30T08:15:14;144877.88;;;13.36;29.31
8280;BME280;8335;42.646;23.380;2024-01-30T08:17:40;144952.66;;;13.66;29.04
8280;BME280;8335;42.646;23.380;2024-01-30T08:20:08;145011.22;;;13.90;28.96
8280;BME280;8335;42.646;23.380;2024-01-30T08:22:38;145011.22;;;13.90;28.72
8280;BME280;8335;42.646;23.380;2024-01-30T08:25:05;145051.09;;;14.07;28.85
8280;BME280;8335;42.646;23.380;2024-01-30T08:27:33;145097.25;;;14.25;28.25
8280;BME280;8335;42.646;23.380;2024-01-30T08:30:01;145135.88;;;14.41;28.19
8280;BME280;8335;42.646;23.380;2024-01-30T08:32:27;144938.94;;;13.61;28.06
8280;BME280;8335;42.646;23.380;2024-01-30T08:34:54;144938.94;;;13.61;28.73
8280;BME280;8335;42.646;23.380;2024-01-30T08:37:21;145026.19;;;13.96;28.83
8280;BME280;8335;42.646;23.380;2024-01-30T08:39:49;145009.97;;;13.90;28.58
8280;BME280;8335;42.646;23.380;2024-01-30T08:42:15;145051.09;;;14.07;28.74
8280;BME280;8335;42.646;23.380;2024-01-30T08:44:43;144982.53;;;13.78;28.67
8280;BME280;8335;42.646;23.380;2024-01-30T08:47:10;144889.09;;;13.40;28.72
8280;BME280;8335;42.646;23.380;2024-01-30T08:49:37;144511.81;;;11.86;29.77
8280;BME280;8335;42.646;23.380;2024-01-30T08:52:04;144257.97;;;10.82;31.51
8280;BME280;8335;42.646;23.380;2024-01-30T08:54:32;144051.59;;;9.98;33.08
8280;BME280;8335;42.646;23.380;2024-01-30T08:57:02;143995.69;;;9.75;34.05
8280;BME280;8335;42.646;23.380;2024-01-30T08:59:29;143712.59;;;8.59;34.29
8280;BME280;8335;42.646;23.380;2024-01-30T09:01:56;143685.28;;;8.47;35.05
8280;BME280;8335;42.646;23.380;2024-01-30T09:04:24;143582.25;;;8.05;36.55
8280;BME280;8335;42.646;23.380;2024-01-30T09:06:51;143494.19;;;7.69;37.00
8280;BME280;8335;42.646;23.380;2024-01-30T09:09:17;143396.25;;;7.29;37.71
8280;BME280;8335;42.646;23.380;2024-01-30T09:11:44;143283.44;;;6.82;38.06
8280;BME280;8335;42.646;23.380;2024-01-30T09:14:12;143200.41;;;6.48;39.25
8280;BME280;8335;42.646;23.380;2024-01-30T09:16:39;143117.41;;;6.14;40.63
8280;BME280;8335;42.646;23.380;2024-01-30T09:19:06;143038.16;;;5.82;41.11
8280;BME280;8335;42.646;23.380;2024-01-30T09:21:32;143017.09;;;5.73;41.22
8280;BME280;8335;42.646;23.380;2024-01-30T09:24:02;142963.88;;;5.51;41.76
8280;BME280;8335;42.646;23.380;2024-01-30T09:26:29;142953.94;;;5.47;42.07
8280;BME280;8335;42.646;23.380;2024-01-30T09:28:56;142895.81;;;5.23;42.41
8280;BME280;8335;42.646;23.380;2024-01-30T09:31:24;142906.91;;;5.28;42.59
8280;BME280;8335;42.646;23.380;2024-01-30T09:33:51;142944.03;;;5.43;42.97
8280;BME280;8335;42.646;23.380;2024-01-30T09:36:19;143035.66;;;5.80;43.02
8280;BME280;8335;42.646;23.380;2024-01-30T09:38:46;143072.84;;;5.96;42.63
8280;BME280;8335;42.646;23.380;2024-01-30T09:41:13;143184.31;;;6.42;42.04
8280;BME280;8335;42.646;23.380;2024-01-30T09:43:41;143424.75;;;7.40;40.06
8280;BME280;8335;42.646;23.380;2024-01-30T09:46:12;143612.03;;;8.17;38.62
8280;BME280;8335;42.646;23.380;2024-01-30T09:48:41;143780.88;;;8.87;36.59
8280;BME280;8335;42.646;23.380;2024-01-30T09:51:09;143844.16;;;9.13;35.54
8280;BME280;8335;42.646;23.380;2024-01-30T09:53:36;143972.13;;;9.65;35.41
8280;BME280;8335;42.646;23.380;2024-01-30T09:56:05;144029.25;;;9.88;34.78
8280;BME280;8335;42.646;23.380;2024-01-30T09:58:32;144046.63;;;9.96;35.16
8280;BME280;8335;42.646;23.380;2024-01-30T10:00:59;144011.84;;;9.81;34.46
8280;BME280;8335;42.646;23.380;2024-01-30T10:03:25;143975.84;;;9.67;34.61
8280;BME280;8335;42.646;23.380;2024-01-30T10:05:55;143933.56;;;9.49;35.34
8280;BME280;8335;42.646;23.380;2024-01-30T10:08:22;143964.63;;;9.62;34.81
8280;BME280;8335;42.646;23.380;2024-01-30T10:10:49;143952.19;;;9.57;34.70
8280;BME280;8335;42.646;23.380;2024-01-30T10:13:16;143870.25;;;9.23;35.39
8280;BME280;8335;42.646;23.380;2024-01-30T10:15:43;143788.31;;;8.90;35.91
8280;BME280;8335;42.646;23.380;2024-01-30T10:18:10;143715.09;;;8.60;37.06
8280;BME280;8335;42.646;23.380;2024-01-30T10:20:37;143608.31;;;8.16;37.33
8280;BME280;8335;42.646;23.380;2024-01-30T10:23:05;143501.66;;;7.72;39.09
8280;BME280;8335;42.646;23.380;2024-01-30T10:25:33;143367.75;;;7.17;40.15
8280;BME280;8335;42.646;23.380;2024-01-30T10:27:59;143272.28;;;6.78;40.79
8280;BME280;8335;42.646;23.380;2024-01-30T10:30:27;143051.78;;;5.87;43.13
8280;BME280;8335;42.646;23.380;2024-01-30T10:32:54;143029.44;;;5.78;44.13
8280;BME280;8335;42.646;23.380;2024-01-30T10:35:20;143077.81;;;5.98;43.93
8280;BME280;8335;42.646;23.380;2024-01-30T10:37:47;143059.19;;;5.90;44.04
8280;BME280;8335;42.646;23.380;2024-01-30T10:40:16;142983.69;;;5.59;44.13
8280;BME280;8335;42.646;23.380;2024-01-30T10:42:43;142904.44;;;5.27;45.32
8280;BME280;8335;42.646;23.380;2024-01-30T10:45:11;142854.94;;;5.06;44.91
8280;BME280;8335;42.646;23.380;2024-01-30T10:47:40;142857.44;;;5.07;46.00
8280;BME280;8335;42.646;23.380;2024-01-30T10:50:08;142831.44;;;4.96;46.22
8280;BME280;8335;42.646;23.380;2024-01-30T10:52:36;142805.47;;;4.86;46.52
8280;BME280;8335;42.646;23.380;2024-01-30T10:55:04;142718.91;;;4.50;46.96
8280;BME280;8335;42.646;23.380;2024-01-30T10:57:35;142726.28;;;4.53;46.65
8280;BME280;8335;42.646;23.380;2024-01-30T11:00:03;142718.91;;;4.50;47.68
8280;BME280;8335;42.646;23.380;2024-01-30T11:02:36;142749.78;;;4.63;47.54
8280;BME280;8335;42.646;23.380;2024-01-30T11:05:04;142705.28;;;4.45;47.88
8280;BME280;8335;42.646;23.380;2024-01-30T11:07:31;142741.16;;;4.59;47.83
8280;BME280;8335;42.646;23.380;2024-01-30T11:10:02;142784.41;;;4.77;47.45
8280;BME280;8335;42.646;23.380;2024-01-30T11:12:30;142821.53;;;4.92;47.61
8280;BME280;8335;42.646;23.380;2024-01-30T11:15:04;142854.94;;;5.06;47.28
8280;BME280;8335;42.646;23.380;2024-01-30T11:17:44;142835.13;;;4.98;47.58
8280;BME280;8335;42.646;23.380;2024-01-30T11:20:14;142867.31;;;5.11;47.09
8280;BME280;8335;42.646;23.380;2024-01-30T11:22:42;142890.81;;;5.21;46.97
8280;BME280;8335;42.646;23.380;2024-01-30T11:25:14;142895.81;;;5.23;46.24
8280;BME280;8335;42.646;23.380;2024-01-30T11:27:41;142760.94;;;4.67;47.91
8280;BME280;8335;42.646;23.380;2024-01-30T11:30:10;142784.41;;;4.77;48.02
8280;BME280;8335;42.646;23.380;2024-01-30T11:32:37;142685.50;;;4.36;48.45
8280;BME280;8335;42.646;23.380;2024-01-30T11:35:04;142680.53;;;4.34;49.44
8280;BME280;8335;42.646;23.380;2024-01-30T11:37:36;142682.97;;;4.35;50.64
8280;BME280;8335;42.646;23.380;2024-01-30T11:40:04;142711.44;;;4.47;49.32
8280;BME280;8335;42.646;23.380;2024-01-30T11:42:31;142716.38;;;4.49;49.03
8280;BME280;8335;42.646;23.380;2024-01-30T11:45:00;142617.50;;;4.08;49.68
8280;BME280;8335;42.646;23.380;2024-01-30T11:47:29;142665.66;;;4.28;49.97
8280;BME280;8335;42.646;23.380;2024-01-30T11:49:56;142671.88;;;4.31;49.59
8280;BME280;8335;42.646;23.380;2024-01-30T11:52:23;142643.44;;;4.19;50.10
8280;BME280;8335;42.646;23.380;2024-01-30T11:54:50;142652.09;;;4.23;50.16
8280;BME280;8335;42.646;23.380;2024-01-30T11:57:17;142644.66;;;4.20;50.15
8280;BME280;8335;42.646;23.380;2024-01-30T11:59:43;142678.06;;;4.33;49.70
8280;BME280;8335;42.646;23.380;2024-01-30T12:02:15;142675.59;;;4.32;49.78
8280;BME280;8335;42.646;23.380;2024-01-30T12:04:43;142687.97;;;4.37;49.85
8280;BME280;8335;42.646;23.380;2024-01-30T12:07:10;142710.22;;;4.47;49.92
8280;BME280;8335;42.646;23.380;2024-01-30T12:09:37;142760.94;;;4.67;50.10
8280;BME280;8335;42.646;23.380;2024-01-30T12:12:04;142817.81;;;4.91;49.15
8280;BME280;8335;42.646;23.380;2024-01-30T12:14:31;142854.94;;;5.06;48.70
8280;BME280;8335;42.646;23.380;2024-01-30T12:16:58;142913.13;;;5.30;48.50
8280;BME280;8335;42.646;23.380;2024-01-30T12:19:25;142815.34;;;4.90;47.45
8280;BME280;8335;42.646;23.380;2024-01-30T12:21:56;142955.19;;;5.47;46.62
8280;BME280;8335;42.646;23.380;2024-01-30T12:24:24;142901.97;;;5.25;47.20
8280;BME280;8335;42.646;23.380;2024-01-30T12:26:51;142880.94;;;5.17;47.50
8280;BME280;8335;42.646;23.380;2024-01-30T12:29:20;142869.78;;;5.12;48.48
8280;BME280;8335;42.646;23.380;2024-01-30T12:31:47;142863.63;;;5.10;47.54
8280;BME280;8335;42.646;23.380;2024-01-30T12:34:14;142835.13;;;4.98;47.07
8280;BME280;8335;42.646;23.380;2024-01-30T12:36:41;142830.19;;;4.96;47.24
8280;BME280;8335;42.646;23.380;2024-01-30T12:39:12;142828.97;;;4.95;47.58
8280;BME280;8335;42.646;23.380;2024-01-30T12:41:39;142837.59;;;4.99;47.69
8280;BME280;8335;42.646;23.380;2024-01-30T12:44:07;142814.13;;;4.89;47.40
8280;BME280;8335;42.646;23.380;2024-01-30T12:46:34;142848.75;;;5.04;47.71
8280;BME280;8335;42.646;23.380;2024-01-30T12:49:01;142851.22;;;5.05;47.28
8280;BME280;8335;42.646;23.380;2024-01-30T12:51:27;142864.84;;;5.10;46.66
8280;BME280;8335;42.646;23.380;2024-01-30T12:53:54;142847.53;;;5.03;47.57
8280;BME280;8335;42.646;23.380;2024-01-30T12:56:22;142852.47;;;5.05;47.54
8280;BME280;8335;42.646;23.380;2024-01-30T12:58:49;142859.91;;;5.08;47.61
8280;BME280;8335;42.646;23.380;2024-01-30T13:01:16;142833.91;;;4.97;47.28
8280;BME280;8335;42.646;23.380;2024-01-30T13:03:43;142759.69;;;4.67;48.02
8280;BME280;8335;42.646;23.380;2024-01-30T13:06:09;142689.19;;;4.38;48.73